createdAt,value
2023-11-17T00:00:16.247Z,20.721000
2023-11-17T00:05:15.798Z,17.576568
2023-11-17T00:10:17.753Z,14.558685
2023-11-17T00:15:16.774Z,11.297943
2023-11-17T00:20:15.929Z,8.258768
2023-11-17T00:25:16.839Z,5.398122
2023-11-17T00:30:16.494Z,2.774575
2023-11-17T00:35:17.148Z,0.835527
2023-11-17T00:40:15.930Z,0.138440
2023-11-17T00:45:16.715Z,0.004678
2023-11-17T00:50:16.333Z,0.000000
2023-11-17T00:55:16.745Z,0.000000
2023-11-17T01:00:16.408Z,0.000000
2023-11-17T01:05:16.971Z,0.000000
2023-11-17T01:10:16.889Z,0.000000
2023-11-17T01:15:15.887Z,0.000000
2023-11-17T01:20:17.265Z,0.000000
2023-11-17T01:25:17.133Z,0.000000
2023-11-17T01:30:18.151Z,0.000000
2023-11-17T01:35:16.583Z,0.000000
2023-11-17T01:40:16.682Z,0.000000
2023-11-17T01:45:16.021Z,0.000000
2023-11-17T01:50:17.297Z,0.000000
2023-11-17T01:55:16.445Z,0.000000
2023-11-17T02:00:16.648Z,0.000000
2023-11-17T02:05:15.743Z,0.000000
2023-11-17T02:10:16.699Z,0.000000
2023-11-17T02:15:16.489Z,0.000000
2023-11-17T02:20:16.140Z,0.000000
2023-11-17T02:25:16.350Z,0.000000
2023-11-17T02:30:15.763Z,0.000000
2023-11-17T02:35:15.971Z,0.000000
2023-11-17T02:40:16.237Z,0.000000
2023-11-17T02:45:16.387Z,0.000000
2023-11-17T02:50:17.119Z,0.000000
2023-11-17T02:55:16.121Z,0.000000
2023-11-17T03:00:16.520Z,0.000000
2023-11-17T03:05:16.631Z,0.000000
2023-11-17T03:10:16.472Z,0.000000
2023-11-17T03:15:15.815Z,0.000000
2023-11-17T03:20:15.936Z,0.000000
2023-11-17T03:25:16.143Z,0.000000
2023-11-17T03:30:15.993Z,0.000000
2023-11-17T03:35:16.484Z,0.000000
2023-11-17T03:40:19.500Z,0.000000
2023-11-17T03:45:16.001Z,0.000000
2023-11-17T03:50:16.865Z,0.000000
2023-11-17T03:55:16.367Z,0.000000
2023-11-17T04:00:17.196Z,0.000000
2023-11-17T04:05:17.379Z,0.002251
2023-11-17T04:10:16.457Z,0.000000
2023-11-17T04:15:16.073Z,0.000000
2023-11-17T04:20:16.868Z,0.000000
2023-11-17T04:25:15.914Z,0.000000
2023-11-17T04:30:16.093Z,0.000000
2023-11-17T04:35:15.813Z,0.000000
2023-11-17T04:40:16.462Z,0.000000
2023-11-17T04:45:15.718Z,0.000000
2023-11-17T04:50:17.518Z,0.000000
2023-11-17T04:55:16.770Z,0.000000
2023-11-17T05:00:21.562Z,0.000000
2023-11-17T05:05:16.098Z,0.000000
2023-11-17T05:10:16.512Z,0.000000
2023-11-17T05:15:16.482Z,0.000000
2023-11-17T05:20:16.293Z,0.000000
2023-11-17T05:25:15.861Z,0.000000
2023-11-17T05:30:16.572Z,0.000000
2023-11-17T05:35:16.107Z,0.000000
2023-11-17T05:40:16.241Z,0.000000
2023-11-17T05:45:15.714Z,0.000000
2023-11-17T05:50:16.618Z,0.000000
2023-11-17T05:55:15.974Z,0.000000
2023-11-17T06:00:15.905Z,0.002225
2023-11-17T06:05:16.632Z,0.000000
2023-11-17T06:10:16.280Z,0.000000
2023-11-17T06:15:16.244Z,0.000000
2023-11-17T06:20:17.313Z,0.000000
2023-11-17T06:25:15.813Z,0.000000
2023-11-17T06:30:17.409Z,0.000000
2023-11-17T06:35:16.623Z,0.000000
2023-11-17T06:40:17.144Z,0.000000
2023-11-17T06:45:15.862Z,0.000000
2023-11-17T06:50:16.157Z,0.000000
2023-11-17T06:55:16.327Z,0.000000
2023-11-17T07:00:17.003Z,0.000000
2023-11-17T07:05:15.938Z,0.000000
2023-11-17T07:10:16.625Z,0.000000
2023-11-17T07:15:16.321Z,0.000000
2023-11-17T07:20:16.478Z,0.000000
2023-11-17T07:25:16.261Z,0.000000
2023-11-17T07:30:16.935Z,0.000000
2023-11-17T07:35:16.180Z,0.000000
2023-11-17T07:40:15.889Z,0.000000
2023-11-17T07:45:16.299Z,0.000000
2023-11-17T07:50:16.011Z,0.000000
2023-11-17T07:55:17.245Z,0.000000
2023-11-17T08:00:16.702Z,0.000000
2023-11-17T08:05:16.348Z,0.000000
2023-11-17T08:10:16.161Z,0.000000
2023-11-17T08:15:16.513Z,0.000000
2023-11-17T08:20:15.980Z,0.000000
2023-11-17T08:25:16.473Z,0.000000
2023-11-17T08:30:17.016Z,0.000000
2023-11-17T08:35:16.699Z,0.000000
2023-11-17T08:40:15.811Z,0.000000
2023-11-17T08:45:17.000Z,0.000000
2023-11-17T08:50:16.748Z,0.000000
2023-11-17T08:55:16.504Z,0.000000
2023-11-17T09:00:16.340Z,0.000000
2023-11-17T09:05:16.567Z,0.000000
2023-11-17T09:10:16.663Z,0.000000
2023-11-17T09:15:15.868Z,0.000000
2023-11-17T09:20:15.975Z,0.000000
2023-11-17T09:25:16.977Z,0.000000
2023-11-17T09:30:16.284Z,0.000000
2023-11-17T09:35:16.117Z,0.000000
2023-11-17T09:40:15.886Z,0.000000
2023-11-17T09:45:16.381Z,0.000000
2023-11-17T09:50:16.152Z,0.000000
2023-11-17T09:55:17.214Z,0.000000
2023-11-17T10:00:16.550Z,0.000000
2023-11-17T10:05:15.827Z,0.000000
2023-11-17T10:10:19.124Z,0.000000
2023-11-17T10:15:17.034Z,0.000000
2023-11-17T10:20:16.121Z,0.000000
2023-11-17T10:25:15.729Z,0.000000
2023-11-17T10:30:16.986Z,0.000000
2023-11-17T10:35:15.980Z,0.000000
2023-11-17T10:40:15.849Z,0.000000
2023-11-17T10:45:17.314Z,0.000000
2023-11-17T10:50:16.184Z,0.000000
2023-11-17T10:55:17.200Z,0.000000
2023-11-17T11:00:17.157Z,0.000000
2023-11-17T11:05:16.597Z,0.000000
2023-11-17T11:10:16.673Z,0.000000
2023-11-17T11:15:17.136Z,0.000000
2023-11-17T11:20:23.071Z,0.000000
2023-11-17T11:25:16.657Z,0.000000
2023-11-17T11:30:16.418Z,0.000000
2023-11-17T11:35:16.378Z,0.000000
2023-11-17T11:40:15.987Z,0.000000
2023-11-17T11:45:17.263Z,0.000000
2023-11-17T11:50:16.054Z,0.000000
2023-11-17T11:55:16.144Z,0.000000
2023-11-17T12:00:16.675Z,0.000000
2023-11-17T12:05:17.002Z,0.000000
2023-11-17T12:10:16.104Z,0.000000
2023-11-17T12:15:17.544Z,0.000000
2023-11-17T12:20:15.809Z,0.000000
2023-11-17T12:25:15.786Z,0.000000
2023-11-17T12:30:15.922Z,0.000000
2023-11-17T12:35:15.870Z,0.000000
2023-11-17T12:40:16.828Z,0.000000
2023-11-17T12:45:15.817Z,0.000000
2023-11-17T12:50:16.167Z,0.000000
2023-11-17T12:55:16.233Z,0.000000
2023-11-17T13:00:16.803Z,0.000000
2023-11-17T13:05:15.835Z,0.000000
2023-11-17T13:10:17.348Z,0.000000
2023-11-17T13:15:17.751Z,0.000000
2023-11-17T13:20:16.184Z,0.000000
2023-11-17T13:25:16.218Z,0.000000
2023-11-17T13:30:16.655Z,0.000000
2023-11-17T13:35:15.790Z,0.000000
2023-11-17T13:40:15.954Z,0.000000
2023-11-17T13:45:16.745Z,0.000000
2023-11-17T13:50:16.377Z,0.000000
2023-11-17T13:55:17.095Z,0.000000
2023-11-17T14:00:15.863Z,0.000000
2023-11-17T14:05:21.195Z,0.000000
2023-11-17T14:10:16.274Z,0.000000
2023-11-17T14:15:16.157Z,0.000000
2023-11-17T14:20:15.795Z,0.000000
2023-11-17T14:25:15.878Z,0.000000
2023-11-17T14:30:17.259Z,0.002215
2023-11-17T14:35:16.069Z,0.000000
2023-11-17T14:40:15.897Z,0.000000
2023-11-17T14:45:16.450Z,0.000000
2023-11-17T14:50:16.857Z,0.000000
2023-11-17T14:55:15.899Z,0.000000
2023-11-17T15:00:18.473Z,0.000000
2023-11-17T15:05:16.283Z,0.000000
2023-11-17T15:10:16.103Z,0.013260
2023-11-17T15:15:16.148Z,0.121186
2023-11-17T15:20:16.627Z,0.807375
2023-11-17T15:25:16.214Z,2.404856
2023-11-17T15:30:16.942Z,4.788118
2023-11-17T15:35:16.165Z,8.084106
2023-11-17T15:40:15.884Z,11.132278
2023-11-17T15:45:15.921Z,14.665560
2023-11-17T15:50:17.202Z,18.956410
2023-11-17T15:55:17.190Z,23.136363
2023-11-17T16:00:16.679Z,27.270817
2023-11-17T16:05:16.180Z,32.123326
2023-11-17T16:10:16.817Z,37.166062
2023-11-17T16:15:16.107Z,42.316908
2023-11-17T16:20:16.317Z,47.620139
2023-11-17T16:25:16.646Z,52.659245
2023-11-17T16:30:16.464Z,58.034684
2023-11-17T16:35:15.866Z,63.859242
2023-11-17T16:40:16.444Z,70.362099
2023-11-17T16:45:16.038Z,76.799805
2023-11-17T16:50:16.025Z,83.441238
2023-11-17T16:55:16.315Z,90.019111
2023-11-17T17:00:17.193Z,97.176028
2023-11-17T17:05:16.821Z,104.519236
2023-11-17T17:10:16.073Z,112.350578
2023-11-17T17:15:17.076Z,120.148323
2023-11-17T17:20:16.299Z,128.061293
2023-11-17T17:25:16.351Z,136.108384
2023-11-17T17:30:15.804Z,144.196017
2023-11-17T17:35:16.571Z,152.357516
2023-11-17T17:40:15.850Z,160.585252
2023-11-17T17:45:16.993Z,168.197591
2023-11-17T17:50:16.868Z,176.057924
2023-11-17T17:55:15.844Z,183.486756
2023-11-17T18:00:18.030Z,191.974857
2023-11-17T18:05:16.435Z,199.389102
2023-11-17T18:10:16.615Z,206.495207
2023-11-17T18:15:16.598Z,213.134403
2023-11-17T18:20:16.167Z,219.911902
2023-11-17T18:25:16.705Z,226.054946
2023-11-17T18:30:16.408Z,232.098701
2023-11-17T18:35:16.880Z,238.282264
2023-11-17T18:40:15.838Z,243.810091
2023-11-17T18:45:16.723Z,248.770136
2023-11-17T18:50:16.465Z,253.628950
2023-11-17T18:55:16.408Z,258.149071
2023-11-17T19:00:16.364Z,263.279350
2023-11-17T19:05:16.615Z,267.693832
2023-11-17T19:10:16.129Z,271.684316
2023-11-17T19:15:15.868Z,274.480723
2023-11-17T19:20:16.051Z,277.373504
2023-11-17T19:25:16.019Z,280.387002
2023-11-17T19:30:16.967Z,283.058268
2023-11-17T19:35:16.149Z,285.379454
2023-11-17T19:40:16.527Z,287.224191
2023-11-17T19:45:15.965Z,288.734388
2023-11-17T19:50:16.451Z,289.909503
2023-11-17T19:55:15.896Z,290.739780
2023-11-17T20:00:16.874Z,291.320128
2023-11-17T20:05:16.005Z,291.626183
2023-11-17T20:10:15.908Z,291.120201
2023-11-17T20:15:16.100Z,290.569016
2023-11-17T20:20:16.179Z,289.358806
2023-11-17T20:25:16.103Z,287.781281
2023-11-17T20:30:16.663Z,286.545530
2023-11-17T20:35:17.064Z,284.513324
2023-11-17T20:40:16.487Z,280.991130
2023-11-17T20:45:16.408Z,277.165318
2023-11-17T20:50:16.008Z,272.895405
2023-11-17T20:55:16.550Z,268.898624
2023-11-17T21:00:16.274Z,264.194825
2023-11-17T21:05:15.900Z,260.064379
2023-11-17T21:10:16.698Z,254.881301
2023-11-17T21:15:16.489Z,249.339934
2023-11-17T21:20:15.976Z,244.606304
2023-11-17T21:25:15.762Z,239.176888
2023-11-17T21:30:15.984Z,233.708121
2023-11-17T21:35:16.170Z,227.485443
2023-11-17T21:40:15.883Z,220.985908
2023-11-17T21:45:15.727Z,213.851989
2023-11-17T21:50:17.006Z,205.975551
2023-11-17T21:55:15.757Z,198.203539
2023-11-17T22:00:15.789Z,190.885723
2023-11-17T22:05:16.723Z,183.208224
2023-11-17T22:10:16.154Z,175.133109
2023-11-17T22:15:17.621Z,167.312638
2023-11-17T22:20:16.136Z,159.332163
2023-11-17T22:25:16.057Z,151.266970
2023-11-17T22:30:17.070Z,142.657462
2023-11-17T22:35:16.441Z,134.479783
2023-11-17T22:40:16.778Z,126.211907
2023-11-17T22:45:17.265Z,117.600242
2023-11-17T22:50:16.977Z,109.666000
2023-11-17T22:55:17.088Z,101.338685
2023-11-17T23:00:16.554Z,93.209015
2023-11-17T23:05:16.493Z,85.511381
2023-11-17T23:10:15.960Z,78.026715
2023-11-17T23:15:15.811Z,70.468999
2023-11-17T23:20:15.872Z,63.908569
2023-11-17T23:25:16.640Z,57.308531
2023-11-17T23:30:15.831Z,50.475088
2023-11-17T23:35:16.883Z,45.079145
2023-11-17T23:40:16.439Z,34.985072
2023-11-17T23:45:16.494Z,23.489738
2023-11-17T23:50:16.071Z,24.533834
2023-11-17T23:55:17.298Z,18.740144
